sensor_id;sensor_type;location;lat;lon;timestamp;P1;durP1;ratioP1;P2;durP2;ratioP2
48285;SDS011;34102;47.716;10.296;2023-07-24T03:45:31;10.80;;;7.88;;
48285;SDS011;34102;47.716;10.296;2023-07-24T03:47:59;11.68;;;8.13;;
48285;SDS011;34102;47.716;10.296;2023-07-24T03:50:24;11.13;;;7.85;;
48285;SDS011;34102;47.716;10.296;2023-07-24T03:52:50;12.98;;;7.57;;
48285;SDS011;34102;47.716;10.296;2023-07-24T03:55:15;11.90;;;7.45;;
48285;SDS011;34102;47.716;10.296;2023-07-24T03:57:41;12.05;;;8.07;;
48285;SDS011;34102;47.716;10.296;2023-07-24T04:00:06;12.77;;;7.65;;
48285;SDS011;34102;47.716;10.296;2023-07-24T04:02:38;13.57;;;8.15;;
48285;SDS011;34102;47.716;10.296;2023-07-24T04:05:04;15.52;;;8.63;;
48285;SDS011;34102;47.716;10.296;2023-07-24T04:07:30;13.30;;;8.15;;
48285;SDS011;34102;47.716;10.296;2023-07-24T04:09:55;11.88;;;7.63;;
48285;SDS011;34102;47.716;10.296;2023-07-24T04:12:20;11.18;;;7.68;;
48285;SDS011;34102;47.716;10.296;2023-07-24T04:14:46;12.93;;;7.93;;
48285;SDS011;34102;47.716;10.296;2023-07-24T04:17:14;13.70;;;8.45;;
48285;SDS011;34102;47.716;10.296;2023-07-24T04:19:39;13.15;;;8.10;;
48285;SDS011;34102;47.716;10.296;2023-07-24T04:22:04;11.57;;;8.07;;
48285;SDS011;34102;47.716;10.296;2023-07-24T04:24:30;10.48;;;7.60;;
48285;SDS011;34102;47.716;10.296;2023-07-24T04:26:55;12.73;;;7.78;;
48285;SDS011;34102;47.716;10.296;2023-07-24T04:29:22;12.45;;;7.50;;
48285;SDS011;34102;47.716;10.296;2023-07-24T04:31:49;13.32;;;7.93;;
48285;SDS011;34102;47.716;10.296;2023-07-24T04:34:16;10.38;;;7.53;;
48285;SDS011;34102;47.716;10.296;2023-07-24T04:36:41;12.02;;;8.07;;
48285;SDS011;34102;47.716;10.296;2023-07-24T04:39:06;13.68;;;8.20;;
48285;SDS011;34102;47.716;10.296;2023-07-24T04:41:32;11.43;;;8.02;;
48285;SDS011;34102;47.716;10.296;2023-07-24T04:43:57;11.55;;;7.93;;
48285;SDS011;34102;47.716;10.296;2023-07-24T04:46:22;14.00;;;8.65;;
48285;SDS011;34102;47.716;10.296;2023-07-24T04:48:48;11.00;;;8.02;;
48285;SDS011;34102;47.716;10.296;2023-07-24T04:51:13;12.93;;;8.70;;
48285;SDS011;34102;47.716;10.296;2023-07-24T04:53:39;15.02;;;9.15;;
48285;SDS011;34102;47.716;10.296;2023-07-24T04:56:04;13.00;;;8.18;;
48285;SDS011;34102;47.716;10.296;2023-07-24T04:58:29;12.75;;;9.30;;
48285;SDS011;34102;47.716;10.296;2023-07-24T05:00:55;15.25;;;9.23;;
48285;SDS011;34102;47.716;10.296;2023-07-24T05:03:21;13.70;;;9.18;;
48285;SDS011;34102;47.716;10.296;2023-07-24T05:05:56;13.15;;;8.05;;
48285;SDS011;34102;47.716;10.296;2023-07-24T05:08:22;12.68;;;8.10;;
48285;SDS011;34102;47.716;10.296;2023-07-24T05:10:53;15.45;;;9.90;;
48285;SDS011;34102;47.716;10.296;2023-07-24T05:13:18;18.00;;;9.50;;
48285;SDS011;34102;47.716;10.296;2023-07-24T05:15:47;12.00;;;8.88;;
48285;SDS011;34102;47.716;10.296;2023-07-24T05:18:12;19.70;;;11.52;;
48285;SDS011;34102;47.716;10.296;2023-07-24T05:20:37;22.17;;;10.93;;
48285;SDS011;34102;47.716;10.296;2023-07-24T05:23:04;15.60;;;9.25;;
48285;SDS011;34102;47.716;10.296;2023-07-24T05:25:29;13.15;;;8.70;;
48285;SDS011;34102;47.716;10.296;2023-07-24T05:27:55;15.45;;;8.63;;
48285;SDS011;34102;47.716;10.296;2023-07-24T05:30:22;17.80;;;9.27;;
48285;SDS011;34102;47.716;10.296;2023-07-24T05:32:48;24.20;;;13.18;;
48285;SDS011;34102;47.716;10.296;2023-07-24T05:35:14;16.35;;;10.07;;
48285;SDS011;34102;47.716;10.296;2023-07-24T05:37:39;13.00;;;9.05;;
48285;SDS011;34102;47.716;10.296;2023-07-24T05:40:05;12.48;;;9.13;;
48285;SDS011;34102;47.716;10.296;2023-07-24T05:42:30;18.85;;;9.90;;
48285;SDS011;34102;47.716;10.296;2023-07-24T05:44:56;11.82;;;9.45;;
48285;SDS011;34102;47.716;10.296;2023-07-24T10:01:10;3.92;;;2.88;;
48285;SDS011;34102;47.716;10.296;2023-07-24T10:03:40;4.50;;;3.40;;
48285;SDS011;34102;47.716;10.296;2023-07-24T10:06:08;5.93;;;4.13;;
48285;SDS011;34102;47.716;10.296;2023-07-24T10:08:37;4.78;;;3.20;;
48285;SDS011;34102;47.716;10.296;2023-07-24T10:11:05;6.10;;;4.65;;
48285;SDS011;34102;47.716;10.296;2023-07-24T10:13:32;4.97;;;3.90;;
48285;SDS011;34102;47.716;10.296;2023-07-24T10:16:01;5.85;;;3.67;;
48285;SDS011;34102;47.716;10.296;2023-07-24T10:18:28;4.35;;;3.70;;
48285;SDS011;34102;47.716;10.296;2023-07-24T10:21:01;5.43;;;3.83;;
48285;SDS011;34102;47.716;10.296;2023-07-24T10:23:27;5.57;;;3.70;;
48285;SDS011;34102;47.716;10.296;2023-07-24T10:25:53;7.85;;;4.60;;
48285;SDS011;34102;47.716;10.296;2023-07-24T10:28:30;6.55;;;3.97;;
48285;SDS011;34102;47.716;10.296;2023-07-24T10:30:56;5.97;;;4.53;;
48285;SDS011;34102;47.716;10.296;2023-07-24T10:33:22;7.53;;;4.30;;
48285;SDS011;34102;47.716;10.296;2023-07-24T10:35:49;6.75;;;4.90;;
48285;SDS011;34102;47.716;10.296;2023-07-24T10:38:16;5.22;;;3.85;;
48285;SDS011;34102;47.716;10.296;2023-07-24T10:40:43;6.95;;;4.60;;
48285;SDS011;34102;47.716;10.296;2023-07-24T10:43:17;11.38;;;7.95;;
48285;SDS011;34102;47.716;10.296;2023-07-24T10:45:49;5.72;;;4.75;;
48285;SDS011;34102;47.716;10.296;2023-07-24T10:48:17;7.63;;;4.45;;
48285;SDS011;34102;47.716;10.296;2023-07-24T10:50:44;6.25;;;4.18;;
48285;SDS011;34102;47.716;10.296;2023-07-24T10:53:10;8.15;;;4.32;;
48285;SDS011;34102;47.716;10.296;2023-07-24T10:55:35;6.75;;;4.88;;
48285;SDS011;34102;47.716;10.296;2023-07-24T10:58:03;6.88;;;4.70;;
48285;SDS011;34102;47.716;10.296;2023-07-24T11:00:29;6.47;;;4.90;;
48285;SDS011;34102;47.716;10.296;2023-07-24T11:02:55;5.20;;;4.10;;
48285;SDS011;34102;47.716;10.296;2023-07-24T11:05:21;5.85;;;4.30;;
48285;SDS011;34102;47.716;10.296;2023-07-24T11:07:50;6.07;;;4.30;;
48285;SDS011;34102;47.716;10.296;2023-07-24T11:10:19;5.72;;;4.68;;
48285;SDS011;34102;47.716;10.296;2023-07-24T11:12:45;8.13;;;5.07;;
48285;SDS011;34102;47.716;10.296;2023-07-24T11:15:11;5.53;;;4.25;;
48285;SDS011;34102;47.716;10.296;2023-07-24T11:17:37;6.80;;;4.40;;
48285;SDS011;34102;47.716;10.296;2023-07-24T11:20:06;6.50;;;4.70;;
48285;SDS011;34102;47.716;10.296;2023-07-24T11:22:33;7.60;;;4.85;;
48285;SDS011;34102;47.716;10.296;2023-07-24T11:25:01;8.15;;;4.00;;
48285;SDS011;34102;47.716;10.296;2023-07-24T11:27:30;6.00;;;4.15;;
48285;SDS011;34102;47.716;10.296;2023-07-24T11:29:57;5.70;;;4.25;;
48285;SDS011;34102;47.716;10.296;2023-07-24T11:32:25;7.50;;;5.10;;
48285;SDS011;34102;47.716;10.296;2023-07-24T11:34:51;6.25;;;4.20;;
48285;SDS011;34102;47.716;10.296;2023-07-24T11:37:16;6.97;;;4.60;;
48285;SDS011;34102;47.716;10.296;2023-07-24T11:39:43;7.72;;;4.75;;
48285;SDS011;34102;47.716;10.296;2023-07-24T11:42:08;5.95;;;4.60;;
48285;SDS011;34102;47.716;10.296;2023-07-24T11:44:34;6.65;;;4.85;;
48285;SDS011;34102;47.716;10.296;2023-07-24T11:49:28;9.02;;;6.68;;
48285;SDS011;34102;47.716;10.296;2023-07-24T11:51:59;9.45;;;6.07;;
48285;SDS011;34102;47.716;10.296;2023-07-24T11:54:24;8.52;;;6.68;;
48285;SDS011;34102;47.716;10.296;2023-07-24T11:56:51;7.80;;;6.03;;
48285;SDS011;34102;47.716;10.296;2023-07-24T11:59:18;9.68;;;5.93;;
48285;SDS011;34102;47.716;10.296;2023-07-24T12:01:46;10.65;;;5.10;;
48285;SDS011;34102;47.716;10.296;2023-07-24T12:04:15;9.07;;;5.18;;
48285;SDS011;34102;47.716;10.296;2023-07-24T12:06:41;6.45;;;4.70;;
48285;SDS011;34102;47.716;10.296;2023-07-24T12:09:07;7.38;;;4.70;;
48285;SDS011;34102;47.716;10.296;2023-07-24T12:11:38;9.88;;;5.50;;
48285;SDS011;34102;47.716;10.296;2023-07-24T12:14:04;8.40;;;5.05;;
48285;SDS011;34102;47.716;10.296;2023-07-24T12:16:33;7.07;;;5.10;;
48285;SDS011;34102;47.716;10.296;2023-07-24T12:18:59;7.10;;;4.75;;
48285;SDS011;34102;47.716;10.296;2023-07-24T12:21:25;6.57;;;4.55;;
48285;SDS011;34102;47.716;10.296;2023-07-24T12:24:06;8.27;;;4.60;;
48285;SDS011;34102;47.716;10.296;2023-07-24T12:26:37;7.38;;;4.65;;
48285;SDS011;34102;47.716;10.296;2023-07-24T12:29:05;7.05;;;3.97;;
48285;SDS011;34102;47.716;10.296;2023-07-24T12:31:39;6.35;;;4.82;;
48285;SDS011;34102;47.716;10.296;2023-07-24T12:34:17;6.78;;;4.60;;
48285;SDS011;34102;47.716;10.296;2023-07-24T12:36:43;5.57;;;4.40;;
48285;SDS011;34102;47.716;10.296;2023-07-24T12:39:32;8.05;;;5.10;;
48285;SDS011;34102;47.716;10.296;2023-07-24T12:41:58;8.77;;;5.13;;
48285;SDS011;34102;47.716;10.296;2023-07-24T12:47:35;9.93;;;4.40;;
48285;SDS011;34102;47.716;10.296;2023-07-24T12:53:47;5.95;;;4.55;;
48285;SDS011;34102;47.716;10.296;2023-07-24T12:56:15;6.85;;;4.13;;
48285;SDS011;34102;47.716;10.296;2023-07-24T12:58:50;8.15;;;4.10;;
48285;SDS011;34102;47.716;10.296;2023-07-24T13:02:14;6.40;;;4.80;;
48285;SDS011;34102;47.716;10.296;2023-07-24T13:05:08;6.97;;;5.30;;
48285;SDS011;34102;47.716;10.296;2023-07-24T13:07:38;6.35;;;4.03;;
48285;SDS011;34102;47.716;10.296;2023-07-24T13:10:27;4.78;;;3.25;;
48285;SDS011;34102;47.716;10.296;2023-07-24T13:15:45;4.88;;;3.00;;
48285;SDS011;34102;47.716;10.296;2023-07-24T13:18:16;4.05;;;3.42;;
48285;SDS011;34102;47.716;10.296;2023-07-24T13:21:20;4.20;;;2.97;;
48285;SDS011;34102;47.716;10.296;2023-07-24T13:24:17;4.15;;;2.50;;
48285;SDS011;34102;47.716;10.296;2023-07-24T13:26:51;4.78;;;2.88;;
48285;SDS011;34102;47.716;10.296;2023-07-24T13:29:29;4.07;;;2.80;;
48285;SDS011;34102;47.716;10.296;2023-07-24T13:31:57;3.25;;;2.40;;
48285;SDS011;34102;47.716;10.296;2023-07-24T13:34:29;4.85;;;3.13;;
48285;SDS011;34102;47.716;10.296;2023-07-24T13:37:04;4.65;;;2.90;;
48285;SDS011;34102;47.716;10.296;2023-07-24T13:39:29;4.30;;;2.70;;
48285;SDS011;34102;47.716;10.296;2023-07-24T13:42:07;4.30;;;2.53;;
48285;SDS011;34102;47.716;10.296;2023-07-24T13:44:32;3.47;;;2.42;;
48285;SDS011;34102;47.716;10.296;2023-07-24T13:47:00;3.90;;;2.38;;
48285;SDS011;34102;47.716;10.296;2023-07-24T13:49:34;3.70;;;2.10;;
48285;SDS011;34102;47.716;10.296;2023-07-24T13:55:04;3.38;;;2.00;;
48285;SDS011;34102;47.716;10.296;2023-07-24T13:57:53;2.72;;;1.80;;
48285;SDS011;34102;47.716;10.296;2023-07-24T14:00:26;2.42;;;1.92;;
48285;SDS011;34102;47.716;10.296;2023-07-24T14:02:55;2.00;;;1.50;;
48285;SDS011;34102;47.716;10.296;2023-07-24T14:09:10;4.68;;;1.50;;
48285;SDS011;34102;47.716;10.296;2023-07-24T14:16:38;1.58;;;1.00;;
48285;SDS011;34102;47.716;10.296;2023-07-24T14:19:57;2.15;;;1.15;;
48285;SDS011;34102;47.716;10.296;2023-07-24T14:41:45;2.20;;;1.50;;
48285;SDS011;34102;47.716;10.296;2023-07-24T14:55:13;1.77;;;1.20;;
48285;SDS011;34102;47.716;10.296;2023-07-24T14:57:39;2.33;;;1.58;;
48285;SDS011;34102;47.716;10.296;2023-07-24T15:00:05;2.25;;;1.67;;
48285;SDS011;34102;47.716;10.296;2023-07-24T15:02:30;2.28;;;1.75;;
48285;SDS011;34102;47.716;10.296;2023-07-24T15:04:58;1.98;;;1.42;;
48285;SDS011;34102;47.716;10.296;2023-07-24T15:07:25;2.42;;;1.58;;
48285;SDS011;34102;47.716;10.296;2023-07-24T15:09:53;2.65;;;1.67;;
48285;SDS011;34102;47.716;10.296;2023-07-24T15:12:19;3.65;;;1.63;;
48285;SDS011;34102;47.716;10.296;2023-07-24T15:14:44;2.38;;;1.90;;
48285;SDS011;34102;47.716;10.296;2023-07-24T15:17:10;2.53;;;1.75;;
48285;SDS011;34102;47.716;10.296;2023-07-24T15:19:37;2.55;;;1.60;;
48285;SDS011;34102;47.716;10.296;2023-07-24T15:22:02;4.35;;;1.60;;
48285;SDS011;34102;47.716;10.296;2023-07-24T15:24:28;2.45;;;1.60;;
48285;SDS011;34102;47.716;10.296;2023-07-24T15:26:53;2.65;;;1.77;;
48285;SDS011;34102;47.716;10.296;2023-07-24T15:29:21;2.08;;;1.55;;
48285;SDS011;34102;47.716;10.296;2023-07-24T15:31:50;2.33;;;1.92;;
48285;SDS011;34102;47.716;10.296;2023-07-24T15:34:15;3.78;;;2.35;;
48285;SDS011;34102;47.716;10.296;2023-07-24T15:36:40;5.72;;;2.20;;
48285;SDS011;34102;47.716;10.296;2023-07-24T15:39:06;3.90;;;2.13;;
48285;SDS011;34102;47.716;10.296;2023-07-24T15:41:44;3.50;;;1.88;;
48285;SDS011;34102;47.716;10.296;2023-07-24T15:44:10;2.85;;;1.90;;
48285;SDS011;34102;47.716;10.296;2023-07-24T15:46:36;2.45;;;1.45;;
48285;SDS011;34102;47.716;10.296;2023-07-24T15:49:01;3.20;;;1.50;;
48285;SDS011;34102;47.716;10.296;2023-07-24T15:51:27;2.63;;;1.75;;
48285;SDS011;34102;47.716;10.296;2023-07-24T15:53:53;3.45;;;1.65;;
48285;SDS011;34102;47.716;10.296;2023-07-24T15:56:18;2.80;;;1.77;;
48285;SDS011;34102;47.716;10.296;2023-07-24T15:58:45;2.47;;;1.55;;
48285;SDS011;34102;47.716;10.296;2023-07-24T16:01:11;3.25;;;1.90;;
48285;SDS011;34102;47.716;10.296;2023-07-24T16:03:36;2.90;;;1.90;;
48285;SDS011;34102;47.716;10.296;2023-07-24T16:06:02;2.08;;;1.80;;
48285;SDS011;34102;47.716;10.296;2023-07-24T16:08:31;3.28;;;2.17;;
48285;SDS011;34102;47.716;10.296;2023-07-24T16:10:57;2.33;;;1.80;;
48285;SDS011;34102;47.716;10.296;2023-07-24T16:13:23;2.97;;;1.80;;
48285;SDS011;34102;47.716;10.296;2023-07-24T16:15:52;2.42;;;1.95;;
48285;SDS011;34102;47.716;10.296;2023-07-24T16:18:22;4.97;;;2.28;;
48285;SDS011;34102;47.716;10.296;2023-07-24T16:20:49;2.50;;;1.90;;
48285;SDS011;34102;47.716;10.296;2023-07-24T16:23:14;2.85;;;2.10;;
48285;SDS011;34102;47.716;10.296;2023-07-24T16:25:39;3.75;;;2.47;;
48285;SDS011;34102;47.716;10.296;2023-07-24T16:28:07;2.90;;;1.98;;
48285;SDS011;34102;47.716;10.296;2023-07-24T16:30:33;3.20;;;2.38;;
48285;SDS011;34102;47.716;10.296;2023-07-24T16:32:59;3.00;;;2.33;;
48285;SDS011;34102;47.716;10.296;2023-07-24T16:35:27;5.03;;;2.72;;
48285;SDS011;34102;47.716;10.296;2023-07-24T16:37:56;7.63;;;4.22;;
48285;SDS011;34102;47.716;10.296;2023-07-24T16:40:21;5.30;;;2.97;;
48285;SDS011;34102;47.716;10.296;2023-07-24T16:42:46;3.95;;;2.28;;
48285;SDS011;34102;47.716;10.296;2023-07-24T16:45:12;3.80;;;2.30;;
48285;SDS011;34102;47.716;10.296;2023-07-24T16:47:38;4.05;;;2.10;;
48285;SDS011;34102;47.716;10.296;2023-07-24T16:50:04;2.85;;;2.03;;
48285;SDS011;34102;47.716;10.296;2023-07-24T16:52:30;2.88;;;1.63;;
48285;SDS011;34102;47.716;10.296;2023-07-24T16:54:56;3.40;;;2.67;;
48285;SDS011;34102;47.716;10.296;2023-07-24T16:57:21;2.60;;;2.10;;
48285;SDS011;34102;47.716;10.296;2023-07-24T16:59:47;3.22;;;2.00;;
48285;SDS011;34102;47.716;10.296;2023-07-24T17:02:12;2.90;;;1.85;;
48285;SDS011;34102;47.716;10.296;2023-07-24T17:04:40;3.22;;;2.25;;
48285;SDS011;34102;47.716;10.296;2023-07-24T17:07:06;5.15;;;2.67;;
48285;SDS011;34102;47.716;10.296;2023-07-24T17:09:38;4.28;;;2.90;;
48285;SDS011;34102;47.716;10.296;2023-07-24T17:12:04;4.53;;;2.90;;
48285;SDS011;34102;47.716;10.296;2023-07-24T17:14:34;4.10;;;3.08;;
48285;SDS011;34102;47.716;10.296;2023-07-24T17:17:09;3.78;;;2.50;;
48285;SDS011;34102;47.716;10.296;2023-07-24T17:19:35;4.85;;;2.70;;
48285;SDS011;34102;47.716;10.296;2023-07-24T17:22:00;3.65;;;3.05;;
48285;SDS011;34102;47.716;10.296;2023-07-24T17:24:25;4.72;;;2.90;;
48285;SDS011;34102;47.716;10.296;2023-07-24T17:26:51;3.65;;;2.85;;
48285;SDS011;34102;47.716;10.296;2023-07-24T17:29:16;4.28;;;3.60;;
48285;SDS011;34102;47.716;10.296;2023-07-24T17:31:43;3.95;;;3.00;;
48285;SDS011;34102;47.716;10.296;2023-07-24T17:34:09;5.45;;;3.30;;
48285;SDS011;34102;47.716;10.296;2023-07-24T17:36:34;3.63;;;2.65;;
48285;SDS011;34102;47.716;10.296;2023-07-24T17:39:00;4.68;;;3.08;;
48285;SDS011;34102;47.716;10.296;2023-07-24T17:41:26;4.43;;;3.47;;
48285;SDS011;34102;47.716;10.296;2023-07-24T17:43:52;4.45;;;2.60;;
48285;SDS011;34102;47.716;10.296;2023-07-24T17:46:20;3.90;;;3.05;;
48285;SDS011;34102;47.716;10.296;2023-07-24T17:48:45;4.15;;;3.10;;
48285;SDS011;34102;47.716;10.296;2023-07-24T17:51:14;6.57;;;3.50;;
48285;SDS011;34102;47.716;10.296;2023-07-24T17:53:39;5.55;;;3.58;;
48285;SDS011;34102;47.716;10.296;2023-07-24T17:56:05;3.42;;;2.78;;
48285;SDS011;34102;47.716;10.296;2023-07-24T17:58:32;4.80;;;3.17;;
48285;SDS011;34102;47.716;10.296;2023-07-24T18:00:58;4.28;;;3.35;;
48285;SDS011;34102;47.716;10.296;2023-07-24T18:03:24;5.05;;;2.75;;
48285;SDS011;34102;47.716;10.296;2023-07-24T18:05:50;4.15;;;2.97;;
48285;SDS011;34102;47.716;10.296;2023-07-24T18:08:15;5.78;;;2.78;;
48285;SDS011;34102;47.716;10.296;2023-07-24T18:10:40;5.13;;;3.00;;
48285;SDS011;34102;47.716;10.296;2023-07-24T18:13:06;5.95;;;2.85;;
48285;SDS011;34102;47.716;10.296;2023-07-24T18:15:31;4.88;;;3.03;;
48285;SDS011;34102;47.716;10.296;2023-07-24T18:17:57;4.88;;;2.97;;
48285;SDS011;34102;47.716;10.296;2023-07-24T18:20:22;3.83;;;2.85;;
48285;SDS011;34102;47.716;10.296;2023-07-24T18:22:48;5.45;;;3.33;;
48285;SDS011;34102;47.716;10.296;2023-07-24T18:25:13;6.20;;;2.90;;
48285;SDS011;34102;47.716;10.296;2023-07-24T18:27:38;4.93;;;2.35;;
48285;SDS011;34102;47.716;10.296;2023-07-24T18:30:05;5.18;;;2.80;;
48285;SDS011;34102;47.716;10.296;2023-07-24T18:32:31;4.13;;;2.70;;
48285;SDS011;34102;47.716;10.296;2023-07-24T18:34:56;8.30;;;3.03;;
48285;SDS011;34102;47.716;10.296;2023-07-24T18:37:22;7.20;;;2.95;;
48285;SDS011;34102;47.716;10.296;2023-07-24T18:39:47;4.43;;;2.50;;
48285;SDS011;34102;47.716;10.296;2023-07-24T18:42:12;15.88;;;10.63;;
48285;SDS011;34102;47.716;10.296;2023-07-24T18:44:42;5.97;;;3.60;;
48285;SDS011;34102;47.716;10.296;2023-07-24T18:47:07;6.97;;;3.83;;
48285;SDS011;34102;47.716;10.296;2023-07-24T18:49:32;5.70;;;3.47;;
48285;SDS011;34102;47.716;10.296;2023-07-24T18:51:58;5.10;;;2.60;;
48285;SDS011;34102;47.716;10.296;2023-07-24T18:54:23;4.10;;;2.60;;
48285;SDS011;34102;47.716;10.296;2023-07-24T18:56:49;4.88;;;2.78;;
48285;SDS011;34102;47.716;10.296;2023-07-24T18:59:14;4.53;;;2.45;;
48285;SDS011;34102;47.716;10.296;2023-07-24T19:01:41;3.88;;;2.53;;
48285;SDS011;34102;47.716;10.296;2023-07-24T19:04:07;4.65;;;2.25;;
48285;SDS011;34102;47.716;10.296;2023-07-24T19:06:33;3.92;;;2.78;;
48285;SDS011;34102;47.716;10.296;2023-07-24T19:08:59;4.07;;;2.38;;
48285;SDS011;34102;47.716;10.296;2023-07-24T19:11:25;3.78;;;2.47;;
48285;SDS011;34102;47.716;10.296;2023-07-24T19:13:51;6.63;;;2.72;;
48285;SDS011;34102;47.716;10.296;2023-07-24T19:16:16;3.83;;;3.05;;
48285;SDS011;34102;47.716;10.296;2023-07-24T19:18:42;4.65;;;3.13;;
48285;SDS011;34102;47.716;10.296;2023-07-24T19:21:10;3.45;;;2.55;;
48285;SDS011;34102;47.716;10.296;2023-07-24T19:23:36;4.68;;;2.75;;
48285;SDS011;34102;47.716;10.296;2023-07-24T19:26:01;3.90;;;2.63;;
48285;SDS011;34102;47.716;10.296;2023-07-24T19:28:27;4.03;;;3.10;;
48285;SDS011;34102;47.716;10.296;2023-07-24T19:30:55;3.63;;;2.50;;
48285;SDS011;34102;47.716;10.296;2023-07-24T19:33:24;4.07;;;2.50;;
48285;SDS011;34102;47.716;10.296;2023-07-24T19:35:56;3.22;;;2.63;;
48285;SDS011;34102;47.716;10.296;2023-07-24T19:38:21;3.50;;;2.50;;
48285;SDS011;34102;47.716;10.296;2023-07-24T19:43:21;3.65;;;2.67;;
48285;SDS011;34102;47.716;10.296;2023-07-24T19:45:46;6.25;;;4.20;;
48285;SDS011;34102;47.716;10.296;2023-07-24T19:48:12;6.25;;;3.30;;
48285;SDS011;34102;47.716;10.296;2023-07-24T19:50:38;4.03;;;3.00;;
48285;SDS011;34102;47.716;10.296;2023-07-24T19:53:11;3.40;;;2.63;;
48285;SDS011;34102;47.716;10.296;2023-07-24T19:55:36;4.53;;;3.78;;
48285;SDS011;34102;47.716;10.296;2023-07-24T19:58:04;3.30;;;2.72;;
48285;SDS011;34102;47.716;10.296;2023-07-24T20:00:29;8.15;;;3.35;;
48285;SDS011;34102;47.716;10.296;2023-07-24T20:02:56;4.95;;;3.00;;
48285;SDS011;34102;47.716;10.296;2023-07-24T20:05:21;5.00;;;2.85;;
48285;SDS011;34102;47.716;10.296;2023-07-24T20:07:46;4.25;;;2.60;;
48285;SDS011;34102;47.716;10.296;2023-07-24T20:10:13;5.70;;;2.42;;
48285;SDS011;34102;47.716;10.296;2023-07-24T20:12:38;4.47;;;2.22;;
48285;SDS011;34102;47.716;10.296;2023-07-24T20:15:06;3.03;;;2.20;;
48285;SDS011;34102;47.716;10.296;2023-07-24T20:17:32;3.95;;;2.35;;
48285;SDS011;34102;47.716;10.296;2023-07-24T20:19:58;4.80;;;2.00;;
48285;SDS011;34102;47.716;10.296;2023-07-24T20:22:23;5.50;;;2.25;;
48285;SDS011;34102;47.716;10.296;2023-07-24T20:24:50;4.10;;;2.42;;
48285;SDS011;34102;47.716;10.296;2023-07-24T20:27:17;2.88;;;2.20;;
48285;SDS011;34102;47.716;10.296;2023-07-24T20:29:42;3.88;;;2.70;;
